Aviation Digital Data Service (ADDS)

Output produced by TAFs form (1119 UTC 24 April 2017)
found at http://www.aviationweather.gov/adds/tafs/
 
METAR text: ROAH 241100Z 12008KT 9999 FEW020 SCT060 23/18 Q1016 RMK 1CU020 3SC060 A3002
Conditions at: ROAH (NAHA (CIV/JASDF), JP) observed 1100 UTC 24 April 2017
Temperature: 23.0°C (73°F)
Dewpoint: 18.0°C (64°F) [RH = 73%]
Pressure (altimeter): 30.00 inches Hg (1016.0 mb)
Winds: from the ESE (120 degrees) at 9 MPH (8 knots; 4.2 m/s)
Visibility: 6 or more miles (10+ km)
Ceiling: at least 12,000 feet AGL
Clouds: few clouds at 2000 feet AGL
scattered clouds at 6000 feet AGL
Weather: no significant weather observed at this time

Forecast for: ROAH (NAHA (CIV/JASDF), JP)
Text: TAF ROAH 240509Z 2406/2512 12010KT 9999 SCT030
Forecast period: 0600 UTC 24 April 2017 to 1200 UTC 25 April 2017
Forecast type: FROM: standard forecast or significant change
Winds: from the ESE (120 degrees) at 12 MPH (10 knots; 5.2 m/s)
Visibility: 6 or more miles (10+ km)
Clouds: scattered clouds at 3000 feet AGL
Weather: no significant weather forecast for this period